www.cux-wetter.de
Wetterdaten: Woche 07.01.08 - 13.01.08 (KW2)
Datum Zeit Temp. A. Feuchte A. Luftdruck Regen Wind Richtung Sonnenschein Solar Taupunkt Windchill Windben
07.01.2008 00:00 3,1 C 92 % 1010,5 hPa 0,0 l/m 13,1 km/h (3 Bft) S-SW 0,00 h 0 W/m 1,9 C -2,1 C 13,1 km/h (3 Bft)
07.01.2008 01:00 2,0 C 93 % 1010,3 hPa 0,0 l/m 12,3 km/h (2 Bft) S 0,00 h 0 W/m 1,1 C -2,7 C 12,3 km/h (2 Bft)
07.01.2008 02:00 1,2 C 95 % 1009,4 hPa 0,0 l/m 9,9 km/h (2 Bft) S 0,00 h 0 W/m 0,5 C -1,9 C 9,9 km/h (2 Bft)
07.01.2008 03:00 0,9 C 96 % 1008,1 hPa 0,0 l/m 12,8 km/h (3 Bft) S 0,00 h 0 W/m 0,3 C -4,5 C 12,8 km/h (3 Bft)
07.01.2008 04:00 1,1 C 97 % 1006,2 hPa 0,0 l/m 16,3 km/h (3 Bft) S-SO 0,00 h 0 W/m 0,7 C -6,3 C 16,3 km/h (3 Bft)
07.01.2008 05:00 1,5 C 97 % 1004,4 hPa 0,0 l/m 18,0 km/h (3 Bft) S-SO 0,00 h 0 W/m 1,0 C -6,7 C 18,0 km/h (3 Bft)
07.01.2008 06:00 1,8 C 94 % 1003,0 hPa 0,0 l/m 19,0 km/h (3 Bft) S 0,00 h 0 W/m 1,0 C -6,8 C 19,0 km/h (3 Bft)
07.01.2008 07:00 2,1 C 92 % 1001,6 hPa 0,6 l/m 19,2 km/h (3 Bft) S-SO 0,00 h 0 W/m 1,0 C -6,5 C 19,2 km/h (3 Bft)
07.01.2008 08:00 2,1 C 95 % 1000,5 hPa 1,2 l/m 19,4 km/h (3 Bft) S 0,00 h 0 W/m 1,3 C -6,6 C 19,4 km/h (3 Bft)
07.01.2008 09:00 2,8 C 97 % 1000,0 hPa 0,3 l/m 19,5 km/h (3 Bft) S-SW 0,00 h 0 W/m 2,3 C -5,7 C 19,5 km/h (3 Bft)
07.01.2008 10:00 3,9 C 97 % 999,7 hPa 0,0 l/m 21,6 km/h (4 Bft) SW 0,00 h 0 W/m 3,4 C -5,2 C 21,6 km/h (4 Bft)
07.01.2008 11:00 5,4 C 98 % 1000,4 hPa 0,0 l/m 27,2 km/h (5 Bft) W-SW 0,00 h 0 W/m 5,0 C -5,0 C 27,2 km/h (5 Bft)
07.01.2008 12:00 6,4 C 94 % 999,8 hPa 0,0 l/m 33,2 km/h (5 Bft) W-SW 0,00 h 0 W/m 5,5 C -5,0 C 33,2 km/h (5 Bft)
07.01.2008 13:00 6,8 C 87 % 1000,0 hPa 0,0 l/m 34,6 km/h (5 Bft) W-SW 0,00 h 0 W/m 4,8 C -4,9 C 34,6 km/h (5 Bft)
07.01.2008 14:00 6,4 C 89 % 999,8 hPa 0,0 l/m 33,4 km/h (5 Bft) W-SW 0,00 h 0 W/m 4,6 C -5,1 C 33,4 km/h (5 Bft)
07.01.2008 15:00 5,8 C 91 % 999,6 hPa 0,3 l/m 36,6 km/h (5 Bft) W-SW 0,00 h 0 W/m 4,5 C -6,6 C 36,6 km/h (5 Bft)
07.01.2008 16:00 5,6 C 91 % 1000,5 hPa 0,0 l/m 39,4 km/h (6 Bft) W-SW 0,00 h 0 W/m 4,3 C -7,5 C 39,4 km/h (6 Bft)
07.01.2008 17:00 5,6 C 90 % 1001,0 hPa 0,3 l/m 39,9 km/h (6 Bft) W 0,00 h 0 W/m 4,1 C -7,6 C 39,9 km/h (6 Bft)
07.01.2008 18:00 5,7 C 85 % 1001,6 hPa 0,0 l/m 42,3 km/h (6 Bft) W 0,00 h 0 W/m 3,4 C -7,8 C 42,3 km/h (6 Bft)
07.01.2008 19:00 5,8 C 85 % 1002,5 hPa 0,0 l/m 42,7 km/h (6 Bft) W 0,00 h 0 W/m 3,4 C -7,8 C 42,7 km/h (6 Bft)
07.01.2008 20:00 5,5 C 85 % 1002,5 hPa 0,0 l/m 44,3 km/h (6 Bft) W 0,00 h 0 W/m 3,3 C -8,3 C 44,3 km/h (6 Bft)
07.01.2008 21:00 5,6 C 83 % 1003,2 hPa 0,0 l/m 41,6 km/h (6 Bft) W 0,00 h 0 W/m 2,9 C -7,8 C 41,6 km/h (6 Bft)
07.01.2008 22:00 5,6 C 84 % 1003,8 hPa 0,0 l/m 39,4 km/h (6 Bft) W 0,00 h 0 W/m 3,2 C -7,5 C 39,4 km/h (6 Bft)
07.01.2008 23:00 5,6 C 87 % 1004,7 hPa 0,0 l/m 37,4 km/h (5 Bft) W 0,00 h 0 W/m 3,7 C -7,1 C 37,4 km/h (5 Bft)
08.01.2008 00:00 5,3 C 89 % 1005,8 hPa 0,0 l/m 35,7 km/h (5 Bft) W 0,00 h 0 W/m 3,7 C -7,2 C 35,7 km/h (5 Bft)
08.01.2008 01:00 4,7 C 91 % 1006,7 hPa 0,0 l/m 31,3 km/h (5 Bft) W 0,00 h 0 W/m 3,4 C -7,0 C 31,3 km/h (5 Bft)
08.01.2008 02:00 4,9 C 93 % 1007,8 hPa 0,6 l/m 25,2 km/h (4 Bft) W 0,00 h 0 W/m 3,8 C -5,0 C 25,2 km/h (4 Bft)
08.01.2008 03:00 4,6 C 93 % 1008,9 hPa 0,0 l/m 27,8 km/h (5 Bft) W 0,00 h 0 W/m 3,6 C -6,2 C 27,8 km/h (5 Bft)
08.01.2008 04:00 4,8 C 92 % 1009,7 hPa 0,0 l/m 29,8 km/h (5 Bft) W 0,00 h 0 W/m 3,7 C -6,5 C 29,8 km/h (5 Bft)
08.01.2008 05:00 4,7 C 92 % 1010,7 hPa 0,0 l/m 29,2 km/h (5 Bft) W 0,00 h 0 W/m 3,5 C -6,5 C 29,2 km/h (5 Bft)
08.01.2008 06:00 4,7 C 91 % 1011,5 hPa 0,0 l/m 32,0 km/h (5 Bft) W 0,00 h 0 W/m 3,2 C -7,3 C 32,0 km/h (5 Bft)
08.01.2008 07:00 4,3 C 90 % 1012,0 hPa 0,0 l/m 33,7 km/h (5 Bft) W 0,00 h 0 W/m 2,8 C -8,2 C 33,7 km/h (5 Bft)
08.01.2008 08:00 4,1 C 90 % 1012,5 hPa 0,0 l/m 30,2 km/h (5 Bft) W-SW 0,00 h 0 W/m 2,5 C -7,6 C 30,2 km/h (5 Bft)
08.01.2008 09:00 4,0 C 92 % 1012,8 hPa 0,0 l/m 29,4 km/h (5 Bft) W-SW 0,00 h 0 W/m 2,8 C -7,5 C 29,4 km/h (5 Bft)
08.01.2008 10:00 5,0 C 90 % 1013,3 hPa 0,0 l/m 34,0 km/h (5 Bft) W-SW 0,00 h 0 W/m 3,5 C -7,2 C 34,0 km/h (5 Bft)
08.01.2008 11:00 5,3 C 89 % 1013,5 hPa 0,0 l/m 32,3 km/h (5 Bft) W 0,00 h 0 W/m 3,7 C -6,5 C 32,3 km/h (5 Bft)
08.01.2008 12:00 5,6 C 90 % 1013,5 hPa 0,0 l/m 30,4 km/h (5 Bft) W-SW 0,00 h 0 W/m 4,1 C -5,5 C 30,4 km/h (5 Bft)
08.01.2008 13:00 6,1 C 89 % 1013,5 hPa 0,0 l/m 30,8 km/h (5 Bft) W 0,00 h 0 W/m 4,5 C -5,0 C 30,8 km/h (5 Bft)
08.01.2008 14:00 6,2 C 91 % 1013,5 hPa 0,0 l/m 29,4 km/h (5 Bft) W-SW 0,00 h 0 W/m 4,8 C -4,5 C 29,4 km/h (5 Bft)
08.01.2008 15:00 6,3 C 92 % 1013,7 hPa 0,0 l/m 24,2 km/h (4 Bft) W-SW 0,00 h 0 W/m 5,0 C -2,9 C 24,2 km/h (4 Bft)
08.01.2008 16:00 6,3 C 92 % 1013,5 hPa 0,0 l/m 26,8 km/h (4 Bft) W-SW 0,00 h 0 W/m 5,1 C -3,6 C 26,8 km/h (4 Bft)
08.01.2008 17:00 6,3 C 91 % 1014,2 hPa 0,0 l/m 26,2 km/h (4 Bft) W-SW 0,00 h 0 W/m 4,9 C -3,3 C 26,2 km/h (4 Bft)
08.01.2008 18:00 6,3 C 90 % 1013,5 hPa 0,0 l/m 23,5 km/h (4 Bft) W-SW 0,00 h 0 W/m 4,8 C -2,5 C 23,5 km/h (4 Bft)
08.01.2008 19:00 6,3 C 91 % 1013,5 hPa 0,0 l/m 16,5 km/h (3 Bft) SW 0,00 h 0 W/m 4,9 C -0,0 C 16,5 km/h (3 Bft)
08.01.2008 20:00 6,4 C 91 % 1012,6 hPa 0,0 l/m 20,4 km/h (4 Bft) SW 0,00 h 0 W/m 5,0 C -1,5 C 20,4 km/h (4 Bft)
08.01.2008 21:00 6,4 C 91 % 1012,5 hPa 0,0 l/m 24,1 km/h (4 Bft) SW 0,00 h 0 W/m 5,0 C -2,7 C 24,1 km/h (4 Bft)
08.01.2008 22:00 6,4 C 91 % 1011,8 hPa 0,0 l/m 22,6 km/h (4 Bft) S-SW 0,00 h 0 W/m 5,0 C -2,3 C 22,6 km/h (4 Bft)
08.01.2008 23:00 5,9 C 90 % 1011,5 hPa 0,0 l/m 25,2 km/h (4 Bft) SW 0,00 h 0 W/m 4,5 C -3,7 C 25,2 km/h (4 Bft)
09.01.2008 00:00 5,3 C 91 % 1010,5 hPa 0,0 l/m 26,4 km/h (4 Bft) SW 0,00 h 0 W/m 3,9 C -4,9 C 26,4 km/h (4 Bft)
09.01.2008 01:00 5,2 C 90 % 1010,1 hPa 0,0 l/m 26,6 km/h (4 Bft) SW 0,00 h 0 W/m 3,6 C -5,1 C 26,6 km/h (4 Bft)
09.01.2008 02:00 5,5 C 88 % 1009,5 hPa 0,0 l/m 26,2 km/h (4 Bft) SW 0,00 h 0 W/m 3,7 C -4,6 C 26,2 km/h (4 Bft)
09.01.2008 03:00 5,0 C 88 % 1008,7 hPa 0,0 l/m 22,1 km/h (4 Bft) S-SW 0,00 h 0 W/m 3,3 C -3,9 C 22,1 km/h (4 Bft)
09.01.2008 04:00 5,1 C 87 % 1007,6 hPa 0,0 l/m 24,2 km/h (4 Bft) S-SW 0,00 h 0 W/m 3,1 C -4,5 C 24,2 km/h (4 Bft)
09.01.2008 05:00 5,9 C 83 % 1006,5 hPa 0,0 l/m 29,5 km/h (5 Bft) SW 0,00 h 0 W/m 3,2 C -4,9 C 29,5 km/h (5 Bft)
09.01.2008 06:00 6,2 C 79 % 1006,0 hPa 0,0 l/m 33,0 km/h (5 Bft) SW 0,00 h 0 W/m 2,9 C -5,3 C 33,0 km/h (5 Bft)
09.01.2008 07:00 6,3 C 79 % 1005,5 hPa 0,0 l/m 30,7 km/h (5 Bft) SW 0,00 h 0 W/m 2,9 C -4,7 C 30,7 km/h (5 Bft)
09.01.2008 08:00 5,7 C 86 % 1005,5 hPa 0,0 l/m 28,5 km/h (5 Bft) SW 0,00 h 0 W/m 3,5 C -4,8 C 28,5 km/h (5 Bft)
09.01.2008 09:00 5,9 C 86 % 1005,5 hPa 0,0 l/m 26,6 km/h (4 Bft) W-SW 0,00 h 0 W/m 3,7 C -4,2 C 26,6 km/h (4 Bft)
09.01.2008 10:00 6,3 C 87 % 1006,0 hPa 0,0 l/m 28,3 km/h (5 Bft) W-SW 0,00 h 0 W/m 4,3 C -4,0 C 28,3 km/h (5 Bft)
09.01.2008 11:00 6,5 C 88 % 1006,5 hPa 0,0 l/m 27,1 km/h (5 Bft) W-SW 0,00 h 0 W/m 4,7 C -3,5 C 27,1 km/h (5 Bft)
09.01.2008 12:00 6,6 C 89 % 1005,8 hPa 0,0 l/m 30,1 km/h (5 Bft) W-SW 0,00 h 0 W/m 5,0 C -4,0 C 30,1 km/h (5 Bft)
09.01.2008 13:00 6,8 C 89 % 1005,5 hPa 0,0 l/m 24,8 km/h (4 Bft) W-SW 0,00 h 0 W/m 5,0 C -2,4 C 24,8 km/h (4 Bft)
09.01.2008 14:00 7,0 C 87 % 1005,5 hPa 0,0 l/m 28,6 km/h (5 Bft) W-SW 0,00 h 0 W/m 5,1 C -3,1 C 28,6 km/h (5 Bft)
09.01.2008 15:00 7,0 C 87 % 1006,0 hPa 0,0 l/m 28,4 km/h (5 Bft) W-SW 0,00 h 0 W/m 5,0 C -3,1 C 28,4 km/h (5 Bft)
09.01.2008 16:00 6,3 C 88 % 1006,7 hPa 0,0 l/m 27,1 km/h (5 Bft) W-SW 0,00 h 0 W/m 4,5 C -3,7 C 27,1 km/h (5 Bft)
09.01.2008 17:00 5,8 C 87 % 1007,5 hPa 0,0 l/m 26,5 km/h (4 Bft) W-SW 0,00 h 0 W/m 3,7 C -4,3 C 26,5 km/h (4 Bft)
09.01.2008 18:00 5,5 C 85 % 1007,5 hPa 0,0 l/m 28,3 km/h (5 Bft) W-SW 0,00 h 0 W/m 3,1 C -5,2 C 28,3 km/h (5 Bft)
09.01.2008 19:00 5,0 C 86 % 1008,0 hPa 0,0 l/m 26,7 km/h (4 Bft) W-SW 0,00 h 0 W/m 2,9 C -5,4 C 26,7 km/h (4 Bft)
09.01.2008 20:00 4,7 C 87 % 1008,5 hPa 0,0 l/m 27,4 km/h (5 Bft) W-SW 0,00 h 0 W/m 2,7 C -6,1 C 27,4 km/h (5 Bft)
09.01.2008 21:00 4,6 C 88 % 1008,5 hPa 0,0 l/m 28,8 km/h (5 Bft) W-SW 0,00 h 0 W/m 2,8 C -6,6 C 28,8 km/h (5 Bft)
09.01.2008 22:00 4,8 C 88 % 1008,9 hPa 0,0 l/m 28,2 km/h (5 Bft) W-SW 0,00 h 0 W/m 2,9 C -6,1 C 28,2 km/h (5 Bft)
09.01.2008 23:00 4,7 C 87 % 1009,5 hPa 0,0 l/m 28,9 km/h (5 Bft) W-SW 0,00 h 0 W/m 2,8 C -6,4 C 28,9 km/h (5 Bft)
10.01.2008 00:00 4,9 C 86 % 1009,5 hPa 0,0 l/m 29,3 km/h (5 Bft) W-SW 0,00 h 0 W/m 2,7 C -6,3 C 29,3 km/h (5 Bft)
10.01.2008 01:00 4,9 C 86 % 1009,5 hPa 0,0 l/m 29,8 km/h (5 Bft) W-SW 0,00 h 0 W/m 2,7 C -6,4 C 29,8 km/h (5 Bft)
10.01.2008 02:00 4,7 C 88 % 1009,5 hPa 0,0 l/m 27,6 km/h (5 Bft) W-SW 0,00 h 0 W/m 3,0 C -6,0 C 27,6 km/h (5 Bft)
10.01.2008 03:00 5,1 C 89 % 1008,7 hPa 0,0 l/m 27,6 km/h (5 Bft) W-SW 0,00 h 0 W/m 3,5 C -5,5 C 27,6 km/h (5 Bft)
10.01.2008 04:00 5,2 C 90 % 1008,5 hPa 0,0 l/m 28,7 km/h (5 Bft) W-SW 0,00 h 0 W/m 3,7 C -5,6 C 28,7 km/h (5 Bft)
10.01.2008 05:00 5,3 C 89 % 1007,8 hPa 0,0 l/m 27,2 km/h (5 Bft) W-SW 0,00 h 0 W/m 3,6 C -5,0 C 27,2 km/h (5 Bft)
10.01.2008 06:00 4,8 C 89 % 1007,5 hPa 0,0 l/m 30,1 km/h (5 Bft) SW 0,00 h 0 W/m 3,2 C -6,6 C 30,1 km/h (5 Bft)
10.01.2008 07:00 4,5 C 89 % 1006,5 hPa 0,0 l/m 32,1 km/h (5 Bft) SW 0,00 h 0 W/m 3,0 C -7,5 C 32,1 km/h (5 Bft)
10.01.2008 08:00 4,4 C 89 % 1006,5 hPa 0,0 l/m 31,9 km/h (5 Bft) SW 0,00 h 0 W/m 2,7 C -7,6 C 31,9 km/h (5 Bft)
10.01.2008 09:00 4,7 C 88 % 1006,5 hPa 0,0 l/m 35,3 km/h (5 Bft) W-SW 0,00 h 0 W/m 2,9 C -8,0 C 35,3 km/h (5 Bft)
10.01.2008 10:00 5,4 C 85 % 1006,5 hPa 0,0 l/m 34,6 km/h (5 Bft) W-SW 0,00 h 0 W/m 3,1 C -6,8 C 34,6 km/h (5 Bft)
10.01.2008 11:00 6,3 C 81 % 1006,5 hPa 0,0 l/m 41,0 km/h (6 Bft) W-SW 0,00 h 0 W/m 3,3 C -6,7 C 41,0 km/h (6 Bft)
10.01.2008 12:00 6,7 C 80 % 1005,8 hPa 0,0 l/m 41,1 km/h (6 Bft) W-SW 0,00 h 0 W/m 3,5 C -6,1 C 41,1 km/h (6 Bft)
10.01.2008 13:00 6,8 C 81 % 1005,5 hPa 0,0 l/m 36,7 km/h (5 Bft) W-SW 0,00 h 0 W/m 3,8 C -5,3 C 36,7 km/h (5 Bft)
10.01.2008 14:00 7,1 C 81 % 1005,1 hPa 0,0 l/m 30,1 km/h (5 Bft) W-SW 0,00 h 0 W/m 4,0 C -3,4 C 30,1 km/h (5 Bft)
10.01.2008 15:00 7,2 C 81 % 1004,5 hPa 0,0 l/m 30,6 km/h (5 Bft) SW 0,00 h 0 W/m 4,2 C -3,3 C 30,6 km/h (5 Bft)
10.01.2008 16:00 7,2 C 81 % 1003,5 hPa 0,0 l/m 32,7 km/h (5 Bft) SW 0,00 h 0 W/m 4,1 C -3,9 C 32,7 km/h (5 Bft)
10.01.2008 17:00 7,1 C 81 % 1003,4 hPa 0,0 l/m 29,0 km/h (5 Bft) SW 0,00 h 0 W/m 4,1 C -3,2 C 29,0 km/h (5 Bft)
10.01.2008 18:00 7,5 C 80 % 1002,5 hPa 0,0 l/m 30,3 km/h (5 Bft) SW 0,00 h 0 W/m 4,2 C -2,9 C 30,3 km/h (5 Bft)
10.01.2008 19:00 7,9 C 79 % 1002,2 hPa 0,0 l/m 33,3 km/h (5 Bft) SW 0,00 h 0 W/m 4,5 C -3,0 C 33,3 km/h (5 Bft)
10.01.2008 20:00 8,3 C 81 % 1001,5 hPa 0,0 l/m 35,8 km/h (5 Bft) SW 0,00 h 0 W/m 5,3 C -2,8 C 35,8 km/h (5 Bft)
10.01.2008 21:00 8,5 C 85 % 1001,0 hPa 0,0 l/m 34,1 km/h (5 Bft) W-SW 0,00 h 0 W/m 6,1 C -2,2 C 34,1 km/h (5 Bft)
10.01.2008 22:00 8,6 C 89 % 1000,5 hPa 0,3 l/m 40,3 km/h (6 Bft) W-SW 0,00 h 0 W/m 6,9 C -3,1 C 40,3 km/h (6 Bft)
10.01.2008 23:00 8,8 C 89 % 1000,5 hPa 0,0 l/m 35,0 km/h (5 Bft) W-SW 0,00 h 0 W/m 7,1 C -2,0 C 35,0 km/h (5 Bft)
11.01.2008 00:00 8,7 C 92 % 1000,8 hPa 0,0 l/m 32,1 km/h (5 Bft) W-SW 0,00 h 0 W/m 7,5 C -1,7 C 32,1 km/h (5 Bft)
11.01.2008 01:00 8,7 C 93 % 1000,6 hPa 0,0 l/m 28,8 km/h (5 Bft) W-SW 0,00 h 0 W/m 7,7 C -0,8 C 28,8 km/h (5 Bft)
11.01.2008 02:00 8,8 C 94 % 1000,5 hPa 0,3 l/m 26,4 km/h (4 Bft) W-SW 0,00 h 0 W/m 7,8 C -0,0 C 26,4 km/h (4 Bft)
11.01.2008 03:00 8,8 C 95 % 1000,5 hPa 0,3 l/m 23,6 km/h (4 Bft) SW 0,00 h 0 W/m 8,1 C 0,7 C 23,6 km/h (4 Bft)
11.01.2008 04:00 8,8 C 96 % 1000,5 hPa 0,0 l/m 24,0 km/h (4 Bft) W-SW 0,00 h 0 W/m 8,2 C 0,6 C 24,0 km/h (4 Bft)
11.01.2008 05:00 8,8 C 96 % 1000,5 hPa 0,0 l/m 24,2 km/h (4 Bft) W-SW 0,00 h 0 W/m 8,2 C 0,4 C 24,2 km/h (4 Bft)
11.01.2008 06:00 8,6 C 97 % 1000,3 hPa 0,0 l/m 19,2 km/h (3 Bft) W-SW 0,00 h 0 W/m 8,1 C 1,9 C 19,2 km/h (3 Bft)
11.01.2008 07:00 8,6 C 97 % 1000,0 hPa 0,0 l/m 27,6 km/h (5 Bft) W-SW 0,00 h 0 W/m 8,2 C -0,6 C 27,6 km/h (5 Bft)
11.01.2008 08:00 8,6 C 97 % 1000,3 hPa 0,0 l/m 24,7 km/h (4 Bft) W-SW 0,00 h 0 W/m 8,2 C 0,1 C 24,7 km/h (4 Bft)
11.01.2008 09:00 8,7 C 97 % 1000,5 hPa 0,0 l/m 23,3 km/h (4 Bft) W-SW 0,00 h 0 W/m 8,2 C 0,6 C 23,3 km/h (4 Bft)
11.01.2008 10:00 8,8 C 96 % 1000,5 hPa 0,0 l/m 22,9 km/h (4 Bft) W-SW 0,00 h 0 W/m 8,1 C 0,9 C 22,9 km/h (4 Bft)
11.01.2008 11:00 8,9 C 95 % 1000,5 hPa 0,0 l/m 20,3 km/h (4 Bft) SW 0,00 h 0 W/m 8,2 C 1,9 C 20,3 km/h (4 Bft)
11.01.2008 12:00 8,8 C 95 % 1000,5 hPa 0,0 l/m 16,8 km/h (3 Bft) SW 0,00 h 0 W/m 8,1 C 3,1 C 16,8 km/h (3 Bft)
11.01.2008 13:00 8,9 C 95 % 999,7 hPa 0,0 l/m 14,3 km/h (3 Bft) SW 0,00 h 0 W/m 8,1 C 4,1 C 14,3 km/h (3 Bft)
11.01.2008 14:00 9,1 C 94 % 998,8 hPa 0,0 l/m 15,5 km/h (3 Bft) S-SW 0,00 h 0 W/m 8,2 C 4,0 C 15,5 km/h (3 Bft)
11.01.2008 15:00 9,2 C 92 % 998,2 hPa 0,0 l/m 12,3 km/h (2 Bft) S 0,00 h 0 W/m 8,0 C 5,5 C 12,3 km/h (2 Bft)
11.01.2008 16:00 8,9 C 91 % 997,5 hPa 0,0 l/m 11,3 km/h (2 Bft) S 0,00 h 0 W/m 7,5 C 5,7 C 11,3 km/h (2 Bft)
11.01.2008 17:00 8,7 C 91 % 997,4 hPa 0,0 l/m 15,6 km/h (3 Bft) S 0,00 h 0 W/m 7,3 C 3,4 C 15,6 km/h (3 Bft)
11.01.2008 18:00 8,9 C 90 % 996,5 hPa 0,0 l/m 17,2 km/h (3 Bft) S 0,00 h 0 W/m 7,4 C 2,9 C 17,2 km/h (3 Bft)
11.01.2008 19:00 8,8 C 91 % 996,5 hPa 0,0 l/m 15,5 km/h (3 Bft) S 0,00 h 0 W/m 7,4 C 3,5 C 15,5 km/h (3 Bft)
11.01.2008 20:00 9,2 C 88 % 996,5 hPa 0,0 l/m 16,5 km/h (3 Bft) S 0,00 h 0 W/m 7,3 C 3,6 C 16,5 km/h (3 Bft)
11.01.2008 21:00 9,6 C 86 % 995,5 hPa 0,0 l/m 14,8 km/h (3 Bft) S 0,00 h 0 W/m 7,3 C 4,9 C 14,8 km/h (3 Bft)
11.01.2008 22:00 9,5 C 86 % 995,5 hPa 0,0 l/m 13,1 km/h (3 Bft) S 0,00 h 0 W/m 7,2 C 5,4 C 13,1 km/h (3 Bft)
11.01.2008 23:00 9,4 C 85 % 995,0 hPa 0,0 l/m 14,7 km/h (3 Bft) S 0,00 h 0 W/m 7,0 C 4,6 C 14,7 km/h (3 Bft)
12.01.2008 00:00 9,4 C 84 % 994,5 hPa 0,0 l/m 12,1 km/h (2 Bft) S 0,00 h 0 W/m 6,8 C 5,8 C 12,1 km/h (2 Bft)
12.01.2008 01:00 9,0 C 84 % 994,0 hPa 0,0 l/m 8,5 km/h (2 Bft) S 0,00 h 0 W/m 6,5 C 7,4 C 8,5 km/h (2 Bft)
12.01.2008 02:00 9,0 C 82 % 993,5 hPa 0,0 l/m 13,6 km/h (3 Bft) S 0,00 h 0 W/m 6,1 C 4,9 C 13,6 km/h (3 Bft)
12.01.2008 03:00 9,5 C 78 % 993,5 hPa 0,0 l/m 16,3 km/h (3 Bft) S-SW 0,00 h 0 W/m 5,9 C 4,0 C 16,3 km/h (3 Bft)
12.01.2008 04:00 9,5 C 81 % 993,4 hPa 0,0 l/m 19,0 km/h (3 Bft) SW 0,00 h 0 W/m 6,4 C 3,1 C 19,0 km/h (3 Bft)
12.01.2008 05:00 9,3 C 84 % 993,5 hPa 0,0 l/m 17,4 km/h (3 Bft) W-SW 0,00 h 0 W/m 6,7 C 3,3 C 17,4 km/h (3 Bft)
12.01.2008 06:00 8,9 C 85 % 993,7 hPa 0,0 l/m 16,9 km/h (3 Bft) SW 0,00 h 0 W/m 6,5 C 3,0 C 16,9 km/h (3 Bft)
12.01.2008 07:00 8,3 C 86 % 994,3 hPa 0,0 l/m 17,7 km/h (3 Bft) SW 0,00 h 0 W/m 6,1 C 2,0 C 17,7 km/h (3 Bft)
12.01.2008 08:00 8,4 C 84 % 994,5 hPa 0,0 l/m 22,0 km/h (4 Bft) SW 0,00 h 0 W/m 5,8 C 0,6 C 22,0 km/h (4 Bft)
12.01.2008 09:00 8,3 C 81 % 994,5 hPa 0,0 l/m 27,4 km/h (5 Bft) W-SW 0,00 h 0 W/m 5,3 C -0,9 C 27,4 km/h (5 Bft)
12.01.2008 10:00 7,1 C 85 % 995,5 hPa 0,0 l/m 29,6 km/h (5 Bft) W-SW 0,00 h 0 W/m 4,8 C -3,2 C 29,6 km/h (5 Bft)
12.01.2008 11:00 6,6 C 86 % 996,2 hPa 0,0 l/m 32,7 km/h (5 Bft) W-SW 0,00 h 0 W/m 4,4 C -4,6 C 32,7 km/h (5 Bft)
12.01.2008 12:00 6,6 C 88 % 996,5 hPa 0,0 l/m 27,7 km/h (5 Bft) W-SW 0,00 h 0 W/m 4,7 C -3,4 C 27,7 km/h (5 Bft)
12.01.2008 13:00 6,8 C 88 % 996,5 hPa 0,0 l/m 31,9 km/h (5 Bft) W-SW 0,00 h 0 W/m 4,9 C -4,2 C 31,9 km/h (5 Bft)
12.01.2008 14:00 6,4 C 89 % 997,8 hPa 0,0 l/m 36,1 km/h (5 Bft) W 0,00 h 0 W/m 4,8 C -5,6 C 36,1 km/h (5 Bft)
12.01.2008 15:00 6,1 C 87 % 999,4 hPa 0,0 l/m 32,4 km/h (5 Bft) W-NW 0,00 h 0 W/m 4,1 C -5,4 C 32,4 km/h (5 Bft)
12.01.2008 16:00 6,0 C 88 % 1001,7 hPa 0,0 l/m 24,7 km/h (4 Bft) W-NW 0,00 h 0 W/m 4,3 C -3,2 C 24,7 km/h (4 Bft)
12.01.2008 17:00 5,7 C 89 % 1003,6 hPa 0,0 l/m 22,5 km/h (4 Bft) W-NW 0,00 h 0 W/m 4,0 C -3,1 C 22,5 km/h (4 Bft)
12.01.2008 18:00 5,2 C 90 % 1004,9 hPa 0,0 l/m 23,2 km/h (4 Bft) W 0,00 h 0 W/m 3,8 C -3,9 C 23,2 km/h (4 Bft)
12.01.2008 19:00 5,5 C 91 % 1006,1 hPa 0,0 l/m 28,8 km/h (5 Bft) W 0,00 h 0 W/m 4,3 C -5,2 C 28,8 km/h (5 Bft)
12.01.2008 20:00 5,0 C 93 % 1007,3 hPa 0,0 l/m 28,7 km/h (5 Bft) W 0,00 h 0 W/m 3,9 C -6,0 C 28,7 km/h (5 Bft)
12.01.2008 21:00 4,7 C 93 % 1008,3 hPa 0,0 l/m 32,0 km/h (5 Bft) W 0,00 h 0 W/m 3,7 C -7,2 C 32,0 km/h (5 Bft)
12.01.2008 22:00 4,3 C 92 % 1009,3 hPa 0,0 l/m 29,9 km/h (5 Bft) W-SW 0,00 h 0 W/m 3,1 C -7,2 C 29,9 km/h (5 Bft)
12.01.2008 23:00 3,9 C 91 % 1010,2 hPa 0,0 l/m 28,2 km/h (5 Bft) W-SW 0,00 h 0 W/m 2,6 C -7,3 C 28,2 km/h (5 Bft)
13.01.2008 00:00 3,5 C 93 % 1011,3 hPa 0,0 l/m 22,5 km/h (4 Bft) W-SW 0,00 h 0 W/m 2,4 C -6,0 C 22,5 km/h (4 Bft)
13.01.2008 01:00 3,1 C 95 % 1011,5 hPa 0,0 l/m 19,9 km/h (4 Bft) W-SW 0,00 h 0 W/m 2,4 C -5,5 C 19,9 km/h (4 Bft)
13.01.2008 02:00 3,3 C 95 % 1011,8 hPa 0,0 l/m 20,7 km/h (4 Bft) W-SW 0,00 h 0 W/m 2,5 C -5,6 C 20,7 km/h (4 Bft)
13.01.2008 03:00 3,2 C 93 % 1012,5 hPa 0,0 l/m 20,9 km/h (4 Bft) W-SW 0,00 h 0 W/m 2,3 C -5,7 C 20,9 km/h (4 Bft)
13.01.2008 04:00 2,3 C 93 % 1012,5 hPa 0,0 l/m 11,6 km/h (2 Bft) SW 0,00 h 0 W/m 1,3 C -2,0 C 11,6 km/h (2 Bft)
13.01.2008 05:00 1,8 C 94 % 1012,5 hPa 0,0 l/m 13,7 km/h (3 Bft) SW 0,00 h 0 W/m 1,0 C -4,0 C 13,7 km/h (3 Bft)
13.01.2008 06:00 1,9 C 95 % 1012,5 hPa 0,0 l/m 17,1 km/h (3 Bft) SW 0,00 h 0 W/m 1,2 C -5,7 C 17,1 km/h (3 Bft)
13.01.2008 07:00 2,1 C 95 % 1012,5 hPa 0,0 l/m 12,1 km/h (2 Bft) S-SW 0,00 h 0 W/m 1,4 C -2,5 C 12,1 km/h (2 Bft)
13.01.2008 08:00 1,8 C 96 % 1012,5 hPa 0,0 l/m 12,1 km/h (2 Bft) S 0,00 h 0 W/m 1,2 C -2,9 C 12,1 km/h (2 Bft)
13.01.2008 09:00 3,0 C 95 % 1012,5 hPa 0,0 l/m 16,2 km/h (3 Bft) S 0,00 h 0 W/m 2,3 C -3,8 C 16,2 km/h (3 Bft)
13.01.2008 10:00 4,0 C 92 % 1012,5 hPa 0,0 l/m 23,5 km/h (4 Bft) S-SW 0,00 h 0 W/m 2,8 C -5,7 C 23,5 km/h (4 Bft)
13.01.2008 11:00 5,7 C 87 % 1012,5 hPa 0,0 l/m 29,9 km/h (5 Bft) SW 0,00 h 0 W/m 3,7 C -5,2 C 29,9 km/h (5 Bft)
13.01.2008 12:00 6,3 C 84 % 1012,0 hPa 0,0 l/m 27,5 km/h (5 Bft) SW 0,00 h 0 W/m 3,9 C -3,8 C 27,5 km/h (5 Bft)
13.01.2008 13:00 6,6 C 84 % 1012,2 hPa 0,0 l/m 25,9 km/h (4 Bft) SW 0,00 h 0 W/m 4,1 C -2,9 C 25,9 km/h (4 Bft)
13.01.2008 14:00 7,0 C 83 % 1011,5 hPa 0,0 l/m 22,6 km/h (4 Bft) SW 0,00 h 0 W/m 4,3 C -1,5 C 22,6 km/h (4 Bft)
13.01.2008 15:00 7,1 C 83 % 1011,5 hPa 0,0 l/m 21,8 km/h (4 Bft) SW 0,00 h 0 W/m 4,4 C -1,0 C 21,8 km/h (4 Bft)
13.01.2008 16:00 6,8 C 82 % 1012,2 hPa 0,0 l/m 18,2 km/h (3 Bft) SW 0,00 h 0 W/m 4,0 C -0,1 C 18,2 km/h (3 Bft)
13.01.2008 17:00 6,8 C 82 % 1012,4 hPa 0,0 l/m 16,8 km/h (3 Bft) S-SW 0,00 h 0 W/m 3,9 C 0,4 C 16,8 km/h (3 Bft)
13.01.2008 18:00 6,1 C 83 % 1011,5 hPa 0,0 l/m 12,8 km/h (3 Bft) S 0,00 h 0 W/m 3,4 C 1,7 C 12,8 km/h (3 Bft)
13.01.2008 19:00 4,7 C 85 % 1011,5 hPa 0,0 l/m 16,1 km/h (3 Bft) S 0,00 h 0 W/m 2,4 C -1,8 C 16,1 km/h (3 Bft)
13.01.2008 20:00 4,0 C 84 % 1011,5 hPa 0,0 l/m 16,8 km/h (3 Bft) S 0,00 h 0 W/m 1,5 C -3,0 C 16,8 km/h (3 Bft)
13.01.2008 21:00 3,5 C 83 % 1011,3 hPa 0,0 l/m 15,6 km/h (3 Bft) S 0,00 h 0 W/m 0,8 C -3,1 C 15,6 km/h (3 Bft)
13.01.2008 22:00 2,9 C 83 % 1010,5 hPa 0,0 l/m 15,9 km/h (3 Bft) S 0,00 h 0 W/m 0,2 C -3,9 C 15,9 km/h (3 Bft)
13.01.2008 23:00 2,6 C 83 % 1009,8 hPa 0,0 l/m 15,2 km/h (3 Bft) S 0,00 h 0 W/m -0,0 C -3,9 C 15,2 km/h (3 Bft)
Min-Datum _ 07.01.08 09.01.08 12.01.08 - 12.01.08 - - - 13.01.08 08.01.08 12.01.08
_ Min-Zeit 03:55 06:45 04:29 - 01:38 - - - 23:34 07:44 01:38
Minimum _ 0,7 C 78 % 992,5 hPa - 5,4 km/h (2 Bft) - - - -0,1 C -9,7 C 5,4 km/h (2 Bft)
Max-Datum _ 11.01.08 07.01.08 08.01.08 07.01.08 10.01.08 - 07.01.08 07.01.08 11.01.08 12.01.08 10.01.08
_ Max-Zeit 21:40 11:10 15:23 08:01 12:43 - 00:01 00:01 11:16 01:23 12:43
Maximum _ 9,7 C 98 % 1014,5 hPa 1,2 l/m 59,1 km/h
W-SW (7 Bft)
- 0,00 h 0 W/m 8,4 C 9,0 C 59,1 km/h
W-SW (7 Bft)
Durchschnitt _ 6,0 C 89 % 1005,3 hPa #4,2 l/m 25,5 km/h (4 Bft) W-SW #0 min. 0 W/m 4,2 C -3,3 C 25,5 km/h (4 Bft)
copyright by Holger Just